sensor_id;sensor_type;location;lat;lon;timestamp;P1;durP1;ratioP1;P2;durP2;ratioP2
74102;SDS011;62853;46.166;3.640;2022-09-13T00:01:55;8.02;;;7.28;;
74102;SDS011;62853;46.166;3.640;2022-09-13T00:04:20;10.35;;;6.75;;
74102;SDS011;62853;46.166;3.640;2022-09-13T00:06:45;10.43;;;7.28;;
74102;SDS011;62853;46.166;3.640;2022-09-13T00:09:11;11.00;;;7.65;;
74102;SDS011;62853;46.166;3.640;2022-09-13T00:11:36;9.60;;;8.00;;
74102;SDS011;62853;46.166;3.640;2022-09-13T00:14:02;9.00;;;7.55;;
74102;SDS011;62853;46.166;3.640;2022-09-13T00:16:27;8.57;;;7.07;;
74102;SDS011;62853;46.166;3.640;2022-09-13T00:18:53;9.05;;;7.15;;
74102;SDS011;62853;46.166;3.640;2022-09-13T00:21:20;13.82;;;7.30;;
74102;SDS011;62853;46.166;3.640;2022-09-13T00:23:47;8.38;;;7.57;;
74102;SDS011;62853;46.166;3.640;2022-09-13T00:26:18;9.32;;;8.27;;
74102;SDS011;62853;46.166;3.640;2022-09-13T00:28:49;8.32;;;7.25;;
74102;SDS011;62853;46.166;3.640;2022-09-13T00:31:16;9.20;;;7.22;;
74102;SDS011;62853;46.166;3.640;2022-09-13T00:33:41;9.95;;;7.63;;
74102;SDS011;62853;46.166;3.640;2022-09-13T00:36:07;9.68;;;8.00;;
74102;SDS011;62853;46.166;3.640;2022-09-13T00:38:34;8.90;;;7.35;;
74102;SDS011;62853;46.166;3.640;2022-09-13T00:41:02;11.10;;;8.07;;
74102;SDS011;62853;46.166;3.640;2022-09-13T00:46:14;9.40;;;6.85;;
74102;SDS011;62853;46.166;3.640;2022-09-13T00:48:45;9.45;;;7.57;;
74102;SDS011;62853;46.166;3.640;2022-09-13T00:51:12;9.70;;;7.60;;
74102;SDS011;62853;46.166;3.640;2022-09-13T00:53:38;9.10;;;7.80;;
74102;SDS011;62853;46.166;3.640;2022-09-13T00:56:08;8.50;;;7.28;;
74102;SDS011;62853;46.166;3.640;2022-09-13T00:58:48;11.30;;;7.10;;
74102;SDS011;62853;46.166;3.640;2022-09-13T01:01:19;10.32;;;7.78;;
74102;SDS011;62853;46.166;3.640;2022-09-13T01:03:47;8.45;;;7.45;;
74102;SDS011;62853;46.166;3.640;2022-09-13T01:06:17;8.57;;;7.78;;
74102;SDS011;62853;46.166;3.640;2022-09-13T01:08:47;10.52;;;7.72;;
74102;SDS011;62853;46.166;3.640;2022-09-13T01:11:23;7.63;;;6.82;;
74102;SDS011;62853;46.166;3.640;2022-09-13T01:13:53;7.80;;;7.00;;
74102;SDS011;62853;46.166;3.640;2022-09-13T01:16:21;9.13;;;7.60;;
74102;SDS011;62853;46.166;3.640;2022-09-13T01:18:46;9.50;;;8.20;;
74102;SDS011;62853;46.166;3.640;2022-09-13T01:29:33;9.50;;;7.55;;
74102;SDS011;62853;46.166;3.640;2022-09-13T01:32:27;9.30;;;7.65;;
74102;SDS011;62853;46.166;3.640;2022-09-13T01:37:44;8.63;;;7.40;;
74102;SDS011;62853;46.166;3.640;2022-09-13T01:42:47;11.07;;;8.65;;
74102;SDS011;62853;46.166;3.640;2022-09-13T01:48:15;10.82;;;7.25;;
74102;SDS011;62853;46.166;3.640;2022-09-13T01:50:45;9.50;;;7.72;;
74102;SDS011;62853;46.166;3.640;2022-09-13T01:55:59;9.40;;;7.55;;
74102;SDS011;62853;46.166;3.640;2022-09-13T01:58:32;9.13;;;7.63;;
74102;SDS011;62853;46.166;3.640;2022-09-13T02:01:18;9.95;;;7.85;;
74102;SDS011;62853;46.166;3.640;2022-09-13T02:03:58;10.18;;;7.90;;
74102;SDS011;62853;46.166;3.640;2022-09-13T02:06:31;8.98;;;8.05;;
74102;SDS011;62853;46.166;3.640;2022-09-13T02:09:01;9.57;;;7.85;;
74102;SDS011;62853;46.166;3.640;2022-09-13T02:11:33;10.20;;;8.10;;
74102;SDS011;62853;46.166;3.640;2022-09-13T02:14:14;8.88;;;8.07;;
74102;SDS011;62853;46.166;3.640;2022-09-13T02:16:47;13.50;;;8.50;;
74102;SDS011;62853;46.166;3.640;2022-09-13T02:19:20;10.13;;;8.38;;
74102;SDS011;62853;46.166;3.640;2022-09-13T02:21:52;9.00;;;8.10;;
74102;SDS011;62853;46.166;3.640;2022-09-13T02:24:28;9.32;;;8.48;;
74102;SDS011;62853;46.166;3.640;2022-09-13T02:26:57;9.48;;;8.43;;
74102;SDS011;62853;46.166;3.640;2022-09-13T02:29:26;11.85;;;8.57;;
74102;SDS011;62853;46.166;3.640;2022-09-13T02:31:57;12.38;;;9.05;;
74102;SDS011;62853;46.166;3.640;2022-09-13T02:34:31;12.02;;;9.13;;
74102;SDS011;62853;46.166;3.640;2022-09-13T02:37:00;9.90;;;8.85;;
74102;SDS011;62853;46.166;3.640;2022-09-13T02:39:28;11.10;;;9.20;;
74102;SDS011;62853;46.166;3.640;2022-09-13T02:44:46;11.15;;;9.18;;
74102;SDS011;62853;46.166;3.640;2022-09-13T02:47:33;10.13;;;8.63;;
74102;SDS011;62853;46.166;3.640;2022-09-13T02:59:12;12.20;;;10.90;;
74102;SDS011;62853;46.166;3.640;2022-09-13T03:01:21;12.00;;;9.73;;
74102;SDS011;62853;46.166;3.640;2022-09-13T03:03:47;11.65;;;10.10;;
74102;SDS011;62853;46.166;3.640;2022-09-13T03:06:20;11.43;;;10.32;;
74102;SDS011;62853;46.166;3.640;2022-09-13T03:08:49;13.90;;;10.07;;
74102;SDS011;62853;46.166;3.640;2022-09-13T03:11:31;12.93;;;10.10;;
74102;SDS011;62853;46.166;3.640;2022-09-13T03:14:11;12.30;;;10.15;;
74102;SDS011;62853;46.166;3.640;2022-09-13T03:16:42;13.82;;;10.25;;
74102;SDS011;62853;46.166;3.640;2022-09-13T03:19:25;10.98;;;9.40;;
74102;SDS011;62853;46.166;3.640;2022-09-13T03:27:36;13.38;;;9.85;;
74102;SDS011;62853;46.166;3.640;2022-09-13T03:30:12;10.68;;;9.57;;
74102;SDS011;62853;46.166;3.640;2022-09-13T03:32:42;15.07;;;10.30;;
74102;SDS011;62853;46.166;3.640;2022-09-13T03:35:41;12.10;;;9.45;;
74102;SDS011;62853;46.166;3.640;2022-09-13T03:38:16;17.75;;;9.63;;
74102;SDS011;62853;46.166;3.640;2022-09-13T03:46:07;12.85;;;8.55;;
74102;SDS011;62853;46.166;3.640;2022-09-13T03:48:39;11.23;;;8.88;;
74102;SDS011;62853;46.166;3.640;2022-09-13T03:51:07;10.38;;;9.02;;
74102;SDS011;62853;46.166;3.640;2022-09-13T03:53:35;11.20;;;9.27;;
74102;SDS011;62853;46.166;3.640;2022-09-13T03:56:15;10.27;;;9.25;;
74102;SDS011;62853;46.166;3.640;2022-09-13T03:58:42;10.32;;;9.15;;
74102;SDS011;62853;46.166;3.640;2022-09-13T04:01:08;11.10;;;9.35;;
74102;SDS011;62853;46.166;3.640;2022-09-13T04:03:35;10.25;;;8.82;;
74102;SDS011;62853;46.166;3.640;2022-09-13T04:06:01;10.80;;;8.90;;
74102;SDS011;62853;46.166;3.640;2022-09-13T04:08:26;9.82;;;8.70;;
74102;SDS011;62853;46.166;3.640;2022-09-13T04:10:51;9.93;;;8.52;;
74102;SDS011;62853;46.166;3.640;2022-09-13T04:13:17;14.15;;;8.65;;
74102;SDS011;62853;46.166;3.640;2022-09-13T04:15:42;11.77;;;9.38;;
74102;SDS011;62853;46.166;3.640;2022-09-13T04:18:07;10.50;;;8.90;;
74102;SDS011;62853;46.166;3.640;2022-09-13T04:20:33;12.35;;;8.65;;
74102;SDS011;62853;46.166;3.640;2022-09-13T04:22:59;12.30;;;8.07;;
74102;SDS011;62853;46.166;3.640;2022-09-13T04:25:25;10.32;;;8.85;;
74102;SDS011;62853;46.166;3.640;2022-09-13T04:27:54;11.52;;;8.52;;
74102;SDS011;62853;46.166;3.640;2022-09-13T04:30:20;9.40;;;8.38;;
74102;SDS011;62853;46.166;3.640;2022-09-13T04:32:46;10.02;;;8.18;;
74102;SDS011;62853;46.166;3.640;2022-09-13T04:35:12;13.43;;;9.20;;
74102;SDS011;62853;46.166;3.640;2022-09-13T04:37:39;9.57;;;7.97;;
74102;SDS011;62853;46.166;3.640;2022-09-13T04:40:07;9.55;;;8.57;;
74102;SDS011;62853;46.166;3.640;2022-09-13T04:42:33;10.45;;;9.38;;
74102;SDS011;62853;46.166;3.640;2022-09-13T04:44:58;9.50;;;8.50;;
74102;SDS011;62853;46.166;3.640;2022-09-13T04:47:24;11.45;;;8.35;;
74102;SDS011;62853;46.166;3.640;2022-09-13T04:49:49;13.35;;;9.15;;
74102;SDS011;62853;46.166;3.640;2022-09-13T04:52:14;10.90;;;8.52;;
74102;SDS011;62853;46.166;3.640;2022-09-13T04:54:40;12.13;;;8.80;;
74102;SDS011;62853;46.166;3.640;2022-09-13T04:57:05;9.52;;;7.70;;
74102;SDS011;62853;46.166;3.640;2022-09-13T04:59:30;12.02;;;8.95;;
74102;SDS011;62853;46.166;3.640;2022-09-13T05:01:56;9.05;;;7.97;;
74102;SDS011;62853;46.166;3.640;2022-09-13T05:04:21;11.13;;;8.75;;
74102;SDS011;62853;46.166;3.640;2022-09-13T05:06:47;12.60;;;8.52;;
74102;SDS011;62853;46.166;3.640;2022-09-13T05:09:12;10.57;;;8.35;;
74102;SDS011;62853;46.166;3.640;2022-09-13T05:11:39;10.02;;;8.35;;
74102;SDS011;62853;46.166;3.640;2022-09-13T05:14:04;9.30;;;7.78;;
74102;SDS011;62853;46.166;3.640;2022-09-13T05:16:31;9.38;;;8.38;;
74102;SDS011;62853;46.166;3.640;2022-09-13T05:18:57;9.18;;;7.53;;
74102;SDS011;62853;46.166;3.640;2022-09-13T05:21:24;10.45;;;8.38;;
74102;SDS011;62853;46.166;3.640;2022-09-13T05:23:51;10.30;;;8.18;;
74102;SDS011;62853;46.166;3.640;2022-09-13T05:26:19;10.98;;;8.15;;
74102;SDS011;62853;46.166;3.640;2022-09-13T05:28:46;10.02;;;7.72;;
74102;SDS011;62853;46.166;3.640;2022-09-13T05:33:39;10.15;;;8.10;;
74102;SDS011;62853;46.166;3.640;2022-09-13T05:36:05;11.13;;;8.23;;
74102;SDS011;62853;46.166;3.640;2022-09-13T05:38:31;11.55;;;7.95;;
74102;SDS011;62853;46.166;3.640;2022-09-13T05:40:57;11.73;;;7.90;;
74102;SDS011;62853;46.166;3.640;2022-09-13T05:43:26;11.77;;;7.70;;
74102;SDS011;62853;46.166;3.640;2022-09-13T05:46:02;9.45;;;7.70;;
74102;SDS011;62853;46.166;3.640;2022-09-13T05:48:34;13.00;;;8.25;;
74102;SDS011;62853;46.166;3.640;2022-09-13T05:51:13;10.77;;;8.38;;
74102;SDS011;62853;46.166;3.640;2022-09-13T05:53:41;11.85;;;8.10;;
74102;SDS011;62853;46.166;3.640;2022-09-13T05:56:09;11.88;;;8.82;;
74102;SDS011;62853;46.166;3.640;2022-09-13T05:58:43;8.65;;;7.70;;
74102;SDS011;62853;46.166;3.640;2022-09-13T06:01:11;12.55;;;8.40;;
74102;SDS011;62853;46.166;3.640;2022-09-13T06:03:37;9.38;;;8.15;;
74102;SDS011;62853;46.166;3.640;2022-09-13T06:06:04;10.75;;;8.02;;
74102;SDS011;62853;46.166;3.640;2022-09-13T06:08:30;8.77;;;7.57;;
74102;SDS011;62853;46.166;3.640;2022-09-13T06:10:58;11.20;;;8.20;;
74102;SDS011;62853;46.166;3.640;2022-09-13T06:13:25;11.07;;;8.73;;
74102;SDS011;62853;46.166;3.640;2022-09-13T06:15:51;13.75;;;7.82;;
74102;SDS011;62853;46.166;3.640;2022-09-13T06:18:18;11.40;;;8.30;;
74102;SDS011;62853;46.166;3.640;2022-09-13T06:20:44;11.90;;;8.80;;
74102;SDS011;62853;46.166;3.640;2022-09-13T06:23:10;10.27;;;7.80;;
74102;SDS011;62853;46.166;3.640;2022-09-13T06:25:35;13.80;;;9.35;;
74102;SDS011;62853;46.166;3.640;2022-09-13T06:28:01;10.32;;;8.00;;
74102;SDS011;62853;46.166;3.640;2022-09-13T06:30:27;12.25;;;8.45;;
74102;SDS011;62853;46.166;3.640;2022-09-13T06:32:54;12.40;;;8.50;;
74102;SDS011;62853;46.166;3.640;2022-09-13T06:35:20;12.68;;;8.18;;
74102;SDS011;62853;46.166;3.640;2022-09-13T06:37:45;9.45;;;8.40;;
74102;SDS011;62853;46.166;3.640;2022-09-13T06:40:11;13.80;;;8.60;;
74102;SDS011;62853;46.166;3.640;2022-09-13T06:42:37;11.77;;;8.77;;
74102;SDS011;62853;46.166;3.640;2022-09-13T06:45:03;12.88;;;8.40;;
74102;SDS011;62853;46.166;3.640;2022-09-13T06:47:29;13.73;;;9.13;;
74102;SDS011;62853;46.166;3.640;2022-09-13T06:49:54;13.52;;;9.00;;
74102;SDS011;62853;46.166;3.640;2022-09-13T06:52:20;10.45;;;7.80;;
74102;SDS011;62853;46.166;3.640;2022-09-13T06:54:45;10.20;;;8.07;;
74102;SDS011;62853;46.166;3.640;2022-09-13T06:57:11;14.95;;;8.85;;
74102;SDS011;62853;46.166;3.640;2022-09-13T06:59:36;9.93;;;8.40;;
74102;SDS011;62853;46.166;3.640;2022-09-13T07:02:02;16.35;;;8.88;;
74102;SDS011;62853;46.166;3.640;2022-09-13T07:04:27;11.35;;;8.48;;
74102;SDS011;62853;46.166;3.640;2022-09-13T07:06:56;10.13;;;8.48;;
74102;SDS011;62853;46.166;3.640;2022-09-13T07:09:23;11.75;;;8.55;;
74102;SDS011;62853;46.166;3.640;2022-09-13T07:11:50;10.77;;;8.57;;
74102;SDS011;62853;46.166;3.640;2022-09-13T07:14:18;11.65;;;8.80;;
74102;SDS011;62853;46.166;3.640;2022-09-13T07:16:45;10.82;;;9.48;;
74102;SDS011;62853;46.166;3.640;2022-09-13T07:19:12;10.50;;;9.32;;
74102;SDS011;62853;46.166;3.640;2022-09-13T07:21:39;12.63;;;8.88;;
74102;SDS011;62853;46.166;3.640;2022-09-13T07:24:05;13.93;;;9.45;;
74102;SDS011;62853;46.166;3.640;2022-09-13T07:26:31;12.68;;;9.95;;
74102;SDS011;62853;46.166;3.640;2022-09-13T07:28:58;12.80;;;9.85;;
74102;SDS011;62853;46.166;3.640;2022-09-13T07:31:29;13.43;;;9.73;;
74102;SDS011;62853;46.166;3.640;2022-09-13T07:34:01;16.02;;;10.25;;
74102;SDS011;62853;46.166;3.640;2022-09-13T07:36:29;13.38;;;10.02;;
74102;SDS011;62853;46.166;3.640;2022-09-13T07:38:56;12.73;;;11.07;;
74102;SDS011;62853;46.166;3.640;2022-09-13T07:41:23;14.70;;;13.10;;
74102;SDS011;62853;46.166;3.640;2022-09-13T07:43:50;16.90;;;14.57;;
74102;SDS011;62853;46.166;3.640;2022-09-13T07:46:16;15.50;;;12.98;;
74102;SDS011;62853;46.166;3.640;2022-09-13T07:48:46;18.13;;;14.57;;
74102;SDS011;62853;46.166;3.640;2022-09-13T07:51:13;18.33;;;14.45;;
74102;SDS011;62853;46.166;3.640;2022-09-13T07:53:42;18.58;;;14.48;;
74102;SDS011;62853;46.166;3.640;2022-09-13T07:56:09;20.27;;;16.65;;
74102;SDS011;62853;46.166;3.640;2022-09-13T07:58:39;22.42;;;17.75;;
74102;SDS011;62853;46.166;3.640;2022-09-13T08:01:08;21.92;;;17.48;;
74102;SDS011;62853;46.166;3.640;2022-09-13T08:03:36;25.67;;;18.23;;
74102;SDS011;62853;46.166;3.640;2022-09-13T08:06:03;22.67;;;18.85;;
74102;SDS011;62853;46.166;3.640;2022-09-13T08:08:30;21.38;;;17.05;;
74102;SDS011;62853;46.166;3.640;2022-09-13T08:10:56;24.45;;;18.35;;
74102;SDS011;62853;46.166;3.640;2022-09-13T08:13:22;24.65;;;18.83;;
74102;SDS011;62853;46.166;3.640;2022-09-13T08:15:48;23.95;;;17.40;;
74102;SDS011;62853;46.166;3.640;2022-09-13T08:18:14;23.10;;;19.27;;
74102;SDS011;62853;46.166;3.640;2022-09-13T08:20:42;25.42;;;19.30;;
74102;SDS011;62853;46.166;3.640;2022-09-13T08:23:08;24.60;;;19.88;;
74102;SDS011;62853;46.166;3.640;2022-09-13T08:25:35;24.17;;;19.98;;
74102;SDS011;62853;46.166;3.640;2022-09-13T08:28:07;24.73;;;19.05;;
74102;SDS011;62853;46.166;3.640;2022-09-13T08:30:34;25.80;;;20.25;;
74102;SDS011;62853;46.166;3.640;2022-09-13T08:33:04;21.98;;;17.75;;
74102;SDS011;62853;46.166;3.640;2022-09-13T08:35:30;26.60;;;20.23;;
74102;SDS011;62853;46.166;3.640;2022-09-13T08:37:57;26.65;;;21.25;;
74102;SDS011;62853;46.166;3.640;2022-09-13T08:40:23;26.15;;;19.60;;
74102;SDS011;62853;46.166;3.640;2022-09-13T08:45:35;25.08;;;20.08;;
74102;SDS011;62853;46.166;3.640;2022-09-13T08:48:11;26.73;;;20.27;;
74102;SDS011;62853;46.166;3.640;2022-09-13T08:50:40;24.50;;;20.40;;
74102;SDS011;62853;46.166;3.640;2022-09-13T08:53:19;22.33;;;18.73;;
74102;SDS011;62853;46.166;3.640;2022-09-13T08:55:58;21.13;;;17.75;;
74102;SDS011;62853;46.166;3.640;2022-09-13T08:58:41;22.75;;;18.35;;
74102;SDS011;62853;46.166;3.640;2022-09-13T09:06:39;21.52;;;17.13;;
74102;SDS011;62853;46.166;3.640;2022-09-13T09:09:07;18.17;;;15.65;;
74102;SDS011;62853;46.166;3.640;2022-09-13T09:16:57;19.42;;;17.08;;
74102;SDS011;62853;46.166;3.640;2022-09-13T09:22:05;19.77;;;17.20;;
74102;SDS011;62853;46.166;3.640;2022-09-13T09:24:43;18.27;;;14.38;;
74102;SDS011;62853;46.166;3.640;2022-09-13T09:27:17;21.42;;;14.45;;
74102;SDS011;62853;46.166;3.640;2022-09-13T09:29:44;14.65;;;12.98;;
74102;SDS011;62853;46.166;3.640;2022-09-13T09:37:31;15.10;;;10.95;;
74102;SDS011;62853;46.166;3.640;2022-09-13T09:39:59;17.70;;;13.23;;
74102;SDS011;62853;46.166;3.640;2022-09-13T09:42:28;17.23;;;14.55;;
74102;SDS011;62853;46.166;3.640;2022-09-13T09:45:00;19.77;;;17.67;;
74102;SDS011;62853;46.166;3.640;2022-09-13T09:47:34;21.02;;;14.95;;
74102;SDS011;62853;46.166;3.640;2022-09-13T09:50:15;21.63;;;15.82;;
74102;SDS011;62853;46.166;3.640;2022-09-13T09:56:33;25.88;;;17.20;;
74102;SDS011;62853;46.166;3.640;2022-09-13T09:58:45;26.83;;;17.33;;
74102;SDS011;62853;46.166;3.640;2022-09-13T10:06:30;22.63;;;18.25;;
74102;SDS011;62853;46.166;3.640;2022-09-13T10:11:36;18.20;;;15.10;;
74102;SDS011;62853;46.166;3.640;2022-09-13T10:14:25;18.50;;;14.50;;
74102;SDS011;62853;46.166;3.640;2022-09-13T10:17:27;19.23;;;14.80;;
74102;SDS011;62853;46.166;3.640;2022-09-13T10:20:18;15.90;;;13.63;;
74102;SDS011;62853;46.166;3.640;2022-09-13T10:22:57;21.35;;;14.98;;
74102;SDS011;62853;46.166;3.640;2022-09-13T10:25:35;20.20;;;16.42;;
74102;SDS011;62853;46.166;3.640;2022-09-13T10:28:01;19.20;;;14.25;;
74102;SDS011;62853;46.166;3.640;2022-09-13T10:30:31;17.90;;;14.55;;
74102;SDS011;62853;46.166;3.640;2022-09-13T10:35:55;17.00;;;13.93;;
74102;SDS011;62853;46.166;3.640;2022-09-13T10:40:56;15.30;;;11.32;;
74102;SDS011;62853;46.166;3.640;2022-09-13T10:43:24;16.67;;;12.75;;
74102;SDS011;62853;46.166;3.640;2022-09-13T10:45:52;17.13;;;13.45;;
74102;SDS011;62853;46.166;3.640;2022-09-13T10:48:18;17.67;;;12.10;;
74102;SDS011;62853;46.166;3.640;2022-09-13T10:53:39;16.95;;;13.43;;
74102;SDS011;62853;46.166;3.640;2022-09-13T10:56:24;16.45;;;13.23;;
74102;SDS011;62853;46.166;3.640;2022-09-13T10:58:50;15.80;;;12.75;;
74102;SDS011;62853;46.166;3.640;2022-09-13T11:04:30;16.02;;;11.77;;
74102;SDS011;62853;46.166;3.640;2022-09-13T11:09:54;16.02;;;12.13;;
74102;SDS011;62853;46.166;3.640;2022-09-13T11:12:24;15.05;;;12.05;;
74102;SDS011;62853;46.166;3.640;2022-09-13T11:15:19;14.95;;;12.35;;
74102;SDS011;62853;46.166;3.640;2022-09-13T11:34:40;20.00;;;13.25;;
74102;SDS011;62853;46.166;3.640;2022-09-13T11:37:35;21.75;;;14.07;;
74102;SDS011;62853;46.166;3.640;2022-09-13T11:42:43;19.65;;;16.42;;
74102;SDS011;62853;46.166;3.640;2022-09-13T11:47:47;15.98;;;13.95;;
74102;SDS011;62853;46.166;3.640;2022-09-13T11:50:28;15.85;;;14.15;;
74102;SDS011;62853;46.166;3.640;2022-09-13T11:55:39;18.67;;;14.95;;
74102;SDS011;62853;46.166;3.640;2022-09-13T11:58:12;15.75;;;11.95;;
74102;SDS011;62853;46.166;3.640;2022-09-13T12:00:49;14.32;;;11.55;;
74102;SDS011;62853;46.166;3.640;2022-09-13T12:06:22;13.18;;;9.93;;
74102;SDS011;62853;46.166;3.640;2022-09-13T12:11:43;10.27;;;9.05;;
74102;SDS011;62853;46.166;3.640;2022-09-13T12:14:14;12.48;;;8.02;;
74102;SDS011;62853;46.166;3.640;2022-09-13T12:19:18;12.27;;;7.47;;
74102;SDS011;62853;46.166;3.640;2022-09-13T12:21:48;12.48;;;9.30;;
74102;SDS011;62853;46.166;3.640;2022-09-13T12:24:20;13.23;;;8.82;;
74102;SDS011;62853;46.166;3.640;2022-09-13T12:27:06;9.23;;;6.97;;
74102;SDS011;62853;46.166;3.640;2022-09-13T12:32:23;9.82;;;7.30;;
74102;SDS011;62853;46.166;3.640;2022-09-13T13:01:35;8.82;;;6.93;;
74102;SDS011;62853;46.166;3.640;2022-09-13T13:04:02;8.95;;;6.20;;
74102;SDS011;62853;46.166;3.640;2022-09-13T13:06:40;6.88;;;5.20;;
74102;SDS011;62853;46.166;3.640;2022-09-13T13:09:20;6.20;;;5.60;;
74102;SDS011;62853;46.166;3.640;2022-09-13T13:11:49;8.70;;;6.43;;
74102;SDS011;62853;46.166;3.640;2022-09-13T13:14:27;8.40;;;5.50;;
74102;SDS011;62853;46.166;3.640;2022-09-13T13:19:59;6.47;;;5.00;;
74102;SDS011;62853;46.166;3.640;2022-09-13T13:28:46;6.15;;;5.10;;
74102;SDS011;62853;46.166;3.640;2022-09-13T13:31:06;8.55;;;5.25;;
74102;SDS011;62853;46.166;3.640;2022-09-13T13:33:44;6.63;;;4.93;;
74102;SDS011;62853;46.166;3.640;2022-09-13T13:36:24;8.60;;;6.10;;
74102;SDS011;62853;46.166;3.640;2022-09-13T13:38:53;8.55;;;6.03;;
74102;SDS011;62853;46.166;3.640;2022-09-13T13:46:39;7.85;;;5.97;;
74102;SDS011;62853;46.166;3.640;2022-09-13T13:57:32;6.60;;;4.57;;
74102;SDS011;62853;46.166;3.640;2022-09-13T14:00:17;6.18;;;4.78;;
74102;SDS011;62853;46.166;3.640;2022-09-13T14:02:52;8.07;;;6.35;;
74102;SDS011;62853;46.166;3.640;2022-09-13T14:08:37;8.52;;;6.00;;
74102;SDS011;62853;46.166;3.640;2022-09-13T14:14:00;7.53;;;6.63;;
74102;SDS011;62853;46.166;3.640;2022-09-13T14:22:03;9.65;;;6.55;;
74102;SDS011;62853;46.166;3.640;2022-09-13T14:24:42;6.72;;;4.90;;
74102;SDS011;62853;46.166;3.640;2022-09-13T14:29:52;7.47;;;4.28;;
74102;SDS011;62853;46.166;3.640;2022-09-13T14:32:24;7.63;;;5.53;;
74102;SDS011;62853;46.166;3.640;2022-09-13T14:35:02;6.47;;;5.37;;
74102;SDS011;62853;46.166;3.640;2022-09-13T14:37:31;8.38;;;5.35;;
74102;SDS011;62853;46.166;3.640;2022-09-13T14:40:00;7.97;;;6.28;;
74102;SDS011;62853;46.166;3.640;2022-09-13T14:45:24;5.72;;;5.10;;
74102;SDS011;62853;46.166;3.640;2022-09-13T14:50:33;6.85;;;5.03;;
74102;SDS011;62853;46.166;3.640;2022-09-13T14:53:04;7.55;;;5.03;;
74102;SDS011;62853;46.166;3.640;2022-09-13T14:55:34;8.48;;;5.15;;
74102;SDS011;62853;46.166;3.640;2022-09-13T14:58:03;6.32;;;4.70;;
74102;SDS011;62853;46.166;3.640;2022-09-13T15:00:42;5.47;;;3.90;;
74102;SDS011;62853;46.166;3.640;2022-09-13T15:03:15;5.60;;;4.28;;
74102;SDS011;62853;46.166;3.640;2022-09-13T15:05:49;6.57;;;4.43;;
74102;SDS011;62853;46.166;3.640;2022-09-13T15:08:25;5.75;;;4.22;;
74102;SDS011;62853;46.166;3.640;2022-09-13T15:10:50;7.85;;;3.75;;
74102;SDS011;62853;46.166;3.640;2022-09-13T15:13:15;7.45;;;4.63;;
74102;SDS011;62853;46.166;3.640;2022-09-13T15:15:42;9.80;;;5.20;;
74102;SDS011;62853;46.166;3.640;2022-09-13T15:26:09;7.10;;;4.97;;
74102;SDS011;62853;46.166;3.640;2022-09-13T15:31:05;5.28;;;4.25;;
74102;SDS011;62853;46.166;3.640;2022-09-13T15:33:32;5.63;;;4.43;;
74102;SDS011;62853;46.166;3.640;2022-09-13T15:41:35;7.70;;;6.30;;
74102;SDS011;62853;46.166;3.640;2022-09-13T15:44:03;7.85;;;5.28;;
74102;SDS011;62853;46.166;3.640;2022-09-13T15:46:30;7.32;;;5.78;;
74102;SDS011;62853;46.166;3.640;2022-09-13T15:49:03;5.50;;;4.80;;
74102;SDS011;62853;46.166;3.640;2022-09-13T15:51:32;6.43;;;4.88;;
74102;SDS011;62853;46.166;3.640;2022-09-13T15:53:59;8.65;;;6.03;;
74102;SDS011;62853;46.166;3.640;2022-09-13T15:56:30;6.35;;;4.45;;
74102;SDS011;62853;46.166;3.640;2022-09-13T15:58:58;5.93;;;5.43;;
74102;SDS011;62853;46.166;3.640;2022-09-13T16:01:23;7.90;;;5.10;;
74102;SDS011;62853;46.166;3.640;2022-09-13T16:03:51;5.55;;;4.20;;
74102;SDS011;62853;46.166;3.640;2022-09-13T16:06:17;8.30;;;4.50;;
74102;SDS011;62853;46.166;3.640;2022-09-13T16:08:42;8.20;;;5.22;;
74102;SDS011;62853;46.166;3.640;2022-09-13T16:11:07;5.43;;;4.60;;
74102;SDS011;62853;46.166;3.640;2022-09-13T16:13:33;5.10;;;4.07;;
74102;SDS011;62853;46.166;3.640;2022-09-13T16:15:59;7.07;;;5.25;;
74102;SDS011;62853;46.166;3.640;2022-09-13T16:18:24;7.68;;;4.47;;
74102;SDS011;62853;46.166;3.640;2022-09-13T16:20:50;6.63;;;5.03;;
74102;SDS011;62853;46.166;3.640;2022-09-13T16:23:15;6.32;;;3.90;;
74102;SDS011;62853;46.166;3.640;2022-09-13T16:25:41;6.43;;;3.90;;
74102;SDS011;62853;46.166;3.640;2022-09-13T16:28:07;5.18;;;3.97;;
74102;SDS011;62853;46.166;3.640;2022-09-13T16:30:34;5.75;;;4.25;;
74102;SDS011;62853;46.166;3.640;2022-09-13T16:33:00;6.03;;;4.13;;
74102;SDS011;62853;46.166;3.640;2022-09-13T16:35:26;6.40;;;4.05;;
74102;SDS011;62853;46.166;3.640;2022-09-13T16:37:53;5.85;;;3.97;;
74102;SDS011;62853;46.166;3.640;2022-09-13T16:40:19;7.47;;;4.32;;
74102;SDS011;62853;46.166;3.640;2022-09-13T16:42:45;7.22;;;3.95;;
74102;SDS011;62853;46.166;3.640;2022-09-13T16:45:11;3.90;;;3.00;;
74102;SDS011;62853;46.166;3.640;2022-09-13T16:47:37;3.97;;;3.00;;
74102;SDS011;62853;46.166;3.640;2022-09-13T16:50:04;3.58;;;2.97;;
74102;SDS011;62853;46.166;3.640;2022-09-13T16:52:30;3.42;;;2.17;;
74102;SDS011;62853;46.166;3.640;2022-09-13T16:54:56;3.60;;;2.30;;
74102;SDS011;62853;46.166;3.640;2022-09-13T16:57:22;4.20;;;2.50;;
74102;SDS011;62853;46.166;3.640;2022-09-13T16:59:48;4.10;;;2.40;;
74102;SDS011;62853;46.166;3.640;2022-09-13T17:02:19;3.22;;;2.22;;
74102;SDS011;62853;46.166;3.640;2022-09-13T17:04:45;4.63;;;2.50;;
74102;SDS011;62853;46.166;3.640;2022-09-13T17:07:11;3.97;;;2.00;;
74102;SDS011;62853;46.166;3.640;2022-09-13T17:09:37;5.35;;;2.80;;
74102;SDS011;62853;46.166;3.640;2022-09-13T17:12:04;2.72;;;2.50;;
74102;SDS011;62853;46.166;3.640;2022-09-13T17:14:31;3.35;;;2.30;;
74102;SDS011;62853;46.166;3.640;2022-09-13T17:16:58;4.88;;;2.25;;
74102;SDS011;62853;46.166;3.640;2022-09-13T17:19:25;5.03;;;2.40;;
74102;SDS011;62853;46.166;3.640;2022-09-13T17:21:55;3.27;;;2.03;;
74102;SDS011;62853;46.166;3.640;2022-09-13T17:24:22;3.33;;;2.10;;
74102;SDS011;62853;46.166;3.640;2022-09-13T17:26:48;4.22;;;2.85;;
74102;SDS011;62853;46.166;3.640;2022-09-13T17:29:13;4.25;;;2.72;;
74102;SDS011;62853;46.166;3.640;2022-09-13T17:31:39;4.47;;;2.40;;
74102;SDS011;62853;46.166;3.640;2022-09-13T17:34:07;4.40;;;2.70;;
74102;SDS011;62853;46.166;3.640;2022-09-13T17:36:33;5.20;;;2.30;;
74102;SDS011;62853;46.166;3.640;2022-09-13T17:38:58;5.00;;;2.50;;
74102;SDS011;62853;46.166;3.640;2022-09-13T17:41:24;6.60;;;2.60;;
74102;SDS011;62853;46.166;3.640;2022-09-13T17:43:53;4.15;;;2.60;;
74102;SDS011;62853;46.166;3.640;2022-09-13T17:46:19;3.33;;;2.63;;
74102;SDS011;62853;46.166;3.640;2022-09-13T17:48:50;3.25;;;2.40;;
74102;SDS011;62853;46.166;3.640;2022-09-13T17:51:21;3.40;;;1.90;;
74102;SDS011;62853;46.166;3.640;2022-09-13T17:53:52;5.10;;;2.45;;
74102;SDS011;62853;46.166;3.640;2022-09-13T17:56:19;3.92;;;2.40;;
74102;SDS011;62853;46.166;3.640;2022-09-13T17:58:46;3.75;;;2.50;;
74102;SDS011;62853;46.166;3.640;2022-09-13T18:01:11;3.67;;;2.33;;
74102;SDS011;62853;46.166;3.640;2022-09-13T18:03:37;5.20;;;2.50;;
74102;SDS011;62853;46.166;3.640;2022-09-13T18:06:03;5.20;;;2.75;;
74102;SDS011;62853;46.166;3.640;2022-09-13T18:08:31;5.35;;;2.97;;
74102;SDS011;62853;46.166;3.640;2022-09-13T18:11:02;4.70;;;2.60;;
74102;SDS011;62853;46.166;3.640;2022-09-13T18:13:30;2.97;;;2.60;;
74102;SDS011;62853;46.166;3.640;2022-09-13T18:15:57;4.85;;;2.53;;
74102;SDS011;62853;46.166;3.640;2022-09-13T18:18:23;6.15;;;2.85;;
74102;SDS011;62853;46.166;3.640;2022-09-13T18:20:49;5.30;;;3.13;;
74102;SDS011;62853;46.166;3.640;2022-09-13T18:23:14;7.25;;;2.90;;
74102;SDS011;62853;46.166;3.640;2022-09-13T18:25:39;4.15;;;3.00;;
74102;SDS011;62853;46.166;3.640;2022-09-13T18:28:05;6.18;;;3.92;;